sensor_id;sensor_type;location;lat;lon;timestamp;P1;durP1;ratioP1;P2;durP2;ratioP2
46318;SDS011;32042;50.916;2.926;2023-06-14T00:01:48;11.52;;;8.10;;
46318;SDS011;32042;50.916;2.926;2023-06-14T00:04:13;8.65;;;7.85;;
46318;SDS011;32042;50.916;2.926;2023-06-14T00:06:41;13.20;;;8.25;;
46318;SDS011;32042;50.916;2.926;2023-06-14T00:09:10;9.85;;;8.25;;
46318;SDS011;32042;50.916;2.926;2023-06-14T00:11:37;9.73;;;8.02;;
46318;SDS011;32042;50.916;2.926;2023-06-14T00:14:04;9.98;;;8.35;;
46318;SDS011;32042;50.916;2.926;2023-06-14T00:16:30;12.38;;;7.82;;
46318;SDS011;32042;50.916;2.926;2023-06-14T00:18:57;8.77;;;7.88;;
46318;SDS011;32042;50.916;2.926;2023-06-14T00:21:24;9.52;;;8.55;;
46318;SDS011;32042;50.916;2.926;2023-06-14T00:23:53;14.82;;;8.13;;
46318;SDS011;32042;50.916;2.926;2023-06-14T00:26:19;13.63;;;9.25;;
46318;SDS011;32042;50.916;2.926;2023-06-14T00:28:44;9.10;;;8.23;;
46318;SDS011;32042;50.916;2.926;2023-06-14T00:31:10;13.85;;;9.10;;
46318;SDS011;32042;50.916;2.926;2023-06-14T00:33:36;18.52;;;8.77;;
46318;SDS011;32042;50.916;2.926;2023-06-14T00:36:01;13.70;;;9.68;;
46318;SDS011;32042;50.916;2.926;2023-06-14T00:38:27;9.80;;;8.90;;
46318;SDS011;32042;50.916;2.926;2023-06-14T00:40:53;14.90;;;9.07;;
46318;SDS011;32042;50.916;2.926;2023-06-14T00:43:18;11.52;;;9.18;;
46318;SDS011;32042;50.916;2.926;2023-06-14T00:45:44;10.20;;;7.88;;
46318;SDS011;32042;50.916;2.926;2023-06-14T00:48:10;10.18;;;8.38;;
46318;SDS011;32042;50.916;2.926;2023-06-14T00:50:36;11.85;;;8.68;;
46318;SDS011;32042;50.916;2.926;2023-06-14T00:53:03;9.55;;;8.65;;
46318;SDS011;32042;50.916;2.926;2023-06-14T00:55:29;9.40;;;8.60;;
46318;SDS011;32042;50.916;2.926;2023-06-14T00:57:55;8.70;;;7.90;;
46318;SDS011;32042;50.916;2.926;2023-06-14T01:00:21;9.88;;;7.95;;
46318;SDS011;32042;50.916;2.926;2023-06-14T01:02:47;12.38;;;8.93;;
46318;SDS011;32042;50.916;2.926;2023-06-14T01:05:14;9.05;;;8.25;;
46318;SDS011;32042;50.916;2.926;2023-06-14T01:13:15;8.95;;;7.65;;
46318;SDS011;32042;50.916;2.926;2023-06-14T01:15:46;13.75;;;7.88;;
46318;SDS011;32042;50.916;2.926;2023-06-14T01:18:13;8.70;;;7.63;;
46318;SDS011;32042;50.916;2.926;2023-06-14T01:20:45;9.05;;;7.80;;
46318;SDS011;32042;50.916;2.926;2023-06-14T01:23:21;8.93;;;8.00;;
46318;SDS011;32042;50.916;2.926;2023-06-14T01:25:48;11.43;;;8.70;;
46318;SDS011;32042;50.916;2.926;2023-06-14T01:28:17;9.13;;;8.23;;
46318;SDS011;32042;50.916;2.926;2023-06-14T01:30:46;10.02;;;8.73;;
46318;SDS011;32042;50.916;2.926;2023-06-14T01:33:15;12.30;;;8.30;;
46318;SDS011;32042;50.916;2.926;2023-06-14T01:35:44;9.30;;;7.55;;
46318;SDS011;32042;50.916;2.926;2023-06-14T01:38:14;10.73;;;8.32;;
46318;SDS011;32042;50.916;2.926;2023-06-14T01:40:45;10.65;;;7.63;;
46318;SDS011;32042;50.916;2.926;2023-06-14T01:43:15;8.77;;;7.88;;
46318;SDS011;32042;50.916;2.926;2023-06-14T01:45:44;10.35;;;7.32;;
46318;SDS011;32042;50.916;2.926;2023-06-14T01:48:12;8.93;;;8.07;;
46318;SDS011;32042;50.916;2.926;2023-06-14T01:50:38;8.80;;;8.10;;
46318;SDS011;32042;50.916;2.926;2023-06-14T01:53:06;11.88;;;8.15;;
46318;SDS011;32042;50.916;2.926;2023-06-14T01:55:33;11.80;;;7.88;;
46318;SDS011;32042;50.916;2.926;2023-06-14T01:58:02;9.40;;;8.63;;
46318;SDS011;32042;50.916;2.926;2023-06-14T02:00:28;10.63;;;8.18;;
46318;SDS011;32042;50.916;2.926;2023-06-14T02:02:54;8.68;;;7.88;;
46318;SDS011;32042;50.916;2.926;2023-06-14T02:05:20;9.63;;;8.52;;
46318;SDS011;32042;50.916;2.926;2023-06-14T02:07:46;8.85;;;7.95;;
46318;SDS011;32042;50.916;2.926;2023-06-14T02:10:12;8.90;;;8.10;;
46318;SDS011;32042;50.916;2.926;2023-06-14T02:12:39;9.88;;;8.88;;
46318;SDS011;32042;50.916;2.926;2023-06-14T02:15:05;11.00;;;9.20;;
46318;SDS011;32042;50.916;2.926;2023-06-14T02:17:32;10.50;;;9.32;;
46318;SDS011;32042;50.916;2.926;2023-06-14T02:19:58;9.20;;;8.40;;
46318;SDS011;32042;50.916;2.926;2023-06-14T02:22:24;9.45;;;8.65;;
46318;SDS011;32042;50.916;2.926;2023-06-14T02:24:49;10.60;;;9.55;;
46318;SDS011;32042;50.916;2.926;2023-06-14T02:27:15;9.93;;;8.90;;
46318;SDS011;32042;50.916;2.926;2023-06-14T02:29:41;9.77;;;8.32;;
46318;SDS011;32042;50.916;2.926;2023-06-14T02:32:08;12.18;;;9.30;;
46318;SDS011;32042;50.916;2.926;2023-06-14T02:34:35;9.18;;;8.15;;
46318;SDS011;32042;50.916;2.926;2023-06-14T02:37:02;10.27;;;8.68;;
46318;SDS011;32042;50.916;2.926;2023-06-14T02:39:29;9.52;;;8.05;;
46318;SDS011;32042;50.916;2.926;2023-06-14T02:41:55;13.38;;;9.02;;
46318;SDS011;32042;50.916;2.926;2023-06-14T02:44:25;10.63;;;9.60;;
46318;SDS011;32042;50.916;2.926;2023-06-14T02:46:53;16.75;;;10.23;;
46318;SDS011;32042;50.916;2.926;2023-06-14T02:49:21;10.65;;;9.45;;
46318;SDS011;32042;50.916;2.926;2023-06-14T02:51:48;11.18;;;9.73;;
46318;SDS011;32042;50.916;2.926;2023-06-14T02:54:15;10.93;;;9.27;;
46318;SDS011;32042;50.916;2.926;2023-06-14T02:56:41;10.30;;;8.70;;
46318;SDS011;32042;50.916;2.926;2023-06-14T02:59:07;9.43;;;8.52;;
46318;SDS011;32042;50.916;2.926;2023-06-14T03:01:34;11.77;;;10.18;;
46318;SDS011;32042;50.916;2.926;2023-06-14T03:04:03;12.13;;;9.23;;
46318;SDS011;32042;50.916;2.926;2023-06-14T03:06:32;10.43;;;9.50;;
46318;SDS011;32042;50.916;2.926;2023-06-14T03:08:58;12.05;;;9.98;;
46318;SDS011;32042;50.916;2.926;2023-06-14T03:11:26;12.82;;;10.13;;
46318;SDS011;32042;50.916;2.926;2023-06-14T03:13:52;10.13;;;9.13;;
46318;SDS011;32042;50.916;2.926;2023-06-14T03:16:18;11.30;;;10.20;;
46318;SDS011;32042;50.916;2.926;2023-06-14T03:18:45;12.00;;;10.07;;
46318;SDS011;32042;50.916;2.926;2023-06-14T03:21:11;12.30;;;11.30;;
46318;SDS011;32042;50.916;2.926;2023-06-14T03:23:36;12.93;;;10.68;;
46318;SDS011;32042;50.916;2.926;2023-06-14T03:26:02;11.10;;;10.18;;
46318;SDS011;32042;50.916;2.926;2023-06-14T03:28:28;17.20;;;10.35;;
46318;SDS011;32042;50.916;2.926;2023-06-14T03:30:53;14.63;;;11.43;;
46318;SDS011;32042;50.916;2.926;2023-06-14T03:33:19;14.35;;;10.95;;
46318;SDS011;32042;50.916;2.926;2023-06-14T03:35:45;15.90;;;11.38;;
46318;SDS011;32042;50.916;2.926;2023-06-14T03:38:11;15.65;;;11.60;;
46318;SDS011;32042;50.916;2.926;2023-06-14T03:40:37;19.00;;;11.40;;
46318;SDS011;32042;50.916;2.926;2023-06-14T03:43:03;11.98;;;10.82;;
46318;SDS011;32042;50.916;2.926;2023-06-14T03:45:29;11.75;;;10.75;;
46318;SDS011;32042;50.916;2.926;2023-06-14T03:47:54;12.13;;;10.75;;
46318;SDS011;32042;50.916;2.926;2023-06-14T03:50:21;13.35;;;11.15;;
46318;SDS011;32042;50.916;2.926;2023-06-14T03:52:48;15.40;;;11.10;;
46318;SDS011;32042;50.916;2.926;2023-06-14T03:55:14;16.02;;;11.15;;
46318;SDS011;32042;50.916;2.926;2023-06-14T03:57:41;13.00;;;11.45;;
46318;SDS011;32042;50.916;2.926;2023-06-14T04:00:08;12.05;;;10.82;;
46318;SDS011;32042;50.916;2.926;2023-06-14T04:02:34;10.85;;;9.85;;
46318;SDS011;32042;50.916;2.926;2023-06-14T04:05:01;14.10;;;10.52;;
46318;SDS011;32042;50.916;2.926;2023-06-14T04:07:27;16.08;;;10.93;;
46318;SDS011;32042;50.916;2.926;2023-06-14T04:09:53;14.05;;;11.10;;
46318;SDS011;32042;50.916;2.926;2023-06-14T04:12:20;14.45;;;11.50;;
46318;SDS011;32042;50.916;2.926;2023-06-14T04:14:46;16.35;;;11.43;;
46318;SDS011;32042;50.916;2.926;2023-06-14T04:17:11;18.30;;;11.35;;
46318;SDS011;32042;50.916;2.926;2023-06-14T04:19:37;14.38;;;11.75;;
46318;SDS011;32042;50.916;2.926;2023-06-14T04:22:03;18.70;;;11.88;;
46318;SDS011;32042;50.916;2.926;2023-06-14T04:24:29;21.88;;;11.20;;
46318;SDS011;32042;50.916;2.926;2023-06-14T04:26:57;32.20;;;11.55;;
46318;SDS011;32042;50.916;2.926;2023-06-14T04:29:24;23.88;;;12.73;;
46318;SDS011;32042;50.916;2.926;2023-06-14T04:31:53;18.58;;;11.23;;
46318;SDS011;32042;50.916;2.926;2023-06-14T04:34:19;15.90;;;11.85;;
46318;SDS011;32042;50.916;2.926;2023-06-14T04:36:46;15.98;;;11.70;;
46318;SDS011;32042;50.916;2.926;2023-06-14T04:39:18;21.85;;;12.10;;
46318;SDS011;32042;50.916;2.926;2023-06-14T04:41:44;14.55;;;11.95;;
46318;SDS011;32042;50.916;2.926;2023-06-14T04:44:10;16.17;;;11.07;;
46318;SDS011;32042;50.916;2.926;2023-06-14T04:46:37;17.80;;;11.38;;
46318;SDS011;32042;50.916;2.926;2023-06-14T04:49:19;16.65;;;11.82;;
46318;SDS011;32042;50.916;2.926;2023-06-14T04:51:45;15.90;;;11.27;;
46318;SDS011;32042;50.916;2.926;2023-06-14T04:54:12;12.07;;;10.88;;
46318;SDS011;32042;50.916;2.926;2023-06-14T04:56:41;17.25;;;10.60;;
46318;SDS011;32042;50.916;2.926;2023-06-14T04:59:07;13.90;;;10.93;;
46318;SDS011;32042;50.916;2.926;2023-06-14T05:01:34;15.93;;;11.00;;
46318;SDS011;32042;50.916;2.926;2023-06-14T05:04:00;13.98;;;11.18;;
46318;SDS011;32042;50.916;2.926;2023-06-14T05:06:26;12.05;;;10.18;;
46318;SDS011;32042;50.916;2.926;2023-06-14T05:08:52;12.35;;;10.63;;
46318;SDS011;32042;50.916;2.926;2023-06-14T05:11:18;13.27;;;10.52;;
46318;SDS011;32042;50.916;2.926;2023-06-14T05:13:44;14.48;;;11.23;;
46318;SDS011;32042;50.916;2.926;2023-06-14T05:16:11;15.77;;;10.18;;
46318;SDS011;32042;50.916;2.926;2023-06-14T05:18:37;16.50;;;10.05;;
46318;SDS011;32042;50.916;2.926;2023-06-14T05:21:05;18.60;;;10.65;;
46318;SDS011;32042;50.916;2.926;2023-06-14T05:23:31;15.82;;;11.38;;
46318;SDS011;32042;50.916;2.926;2023-06-14T05:25:57;12.68;;;9.98;;
46318;SDS011;32042;50.916;2.926;2023-06-14T05:28:23;12.32;;;9.98;;
46318;SDS011;32042;50.916;2.926;2023-06-14T05:30:49;17.25;;;10.45;;
46318;SDS011;32042;50.916;2.926;2023-06-14T05:33:15;17.67;;;10.02;;
46318;SDS011;32042;50.916;2.926;2023-06-14T05:35:40;15.10;;;10.60;;
46318;SDS011;32042;50.916;2.926;2023-06-14T05:38:06;14.93;;;10.15;;
46318;SDS011;32042;50.916;2.926;2023-06-14T05:40:32;14.63;;;10.32;;
46318;SDS011;32042;50.916;2.926;2023-06-14T05:42:58;11.82;;;10.05;;
46318;SDS011;32042;50.916;2.926;2023-06-14T05:45:24;10.43;;;9.43;;
46318;SDS011;32042;50.916;2.926;2023-06-14T05:47:50;11.93;;;9.20;;
46318;SDS011;32042;50.916;2.926;2023-06-14T05:50:17;9.98;;;9.00;;
46318;SDS011;32042;50.916;2.926;2023-06-14T05:52:43;11.02;;;9.50;;
46318;SDS011;32042;50.916;2.926;2023-06-14T05:55:08;12.38;;;8.93;;
46318;SDS011;32042;50.916;2.926;2023-06-14T05:57:37;10.02;;;9.00;;
46318;SDS011;32042;50.916;2.926;2023-06-14T06:00:02;11.95;;;8.20;;
46318;SDS011;32042;50.916;2.926;2023-06-14T06:02:42;9.07;;;8.02;;
46318;SDS011;32042;50.916;2.926;2023-06-14T06:05:09;10.13;;;8.73;;
46318;SDS011;32042;50.916;2.926;2023-06-14T06:07:35;15.15;;;8.27;;
46318;SDS011;32042;50.916;2.926;2023-06-14T06:10:02;10.52;;;8.25;;
46318;SDS011;32042;50.916;2.926;2023-06-14T06:12:29;10.32;;;8.07;;
46318;SDS011;32042;50.916;2.926;2023-06-14T06:14:55;9.63;;;8.20;;
46318;SDS011;32042;50.916;2.926;2023-06-14T06:17:21;9.07;;;8.07;;
46318;SDS011;32042;50.916;2.926;2023-06-14T06:19:47;12.48;;;7.78;;
46318;SDS011;32042;50.916;2.926;2023-06-14T06:22:12;10.02;;;8.15;;
46318;SDS011;32042;50.916;2.926;2023-06-14T06:24:38;12.20;;;7.80;;
46318;SDS011;32042;50.916;2.926;2023-06-14T06:27:04;9.07;;;7.43;;
46318;SDS011;32042;50.916;2.926;2023-06-14T06:29:30;8.63;;;7.47;;
46318;SDS011;32042;50.916;2.926;2023-06-14T06:31:56;11.40;;;7.90;;
46318;SDS011;32042;50.916;2.926;2023-06-14T06:34:22;11.20;;;7.80;;
46318;SDS011;32042;50.916;2.926;2023-06-14T06:36:47;10.43;;;7.15;;
46318;SDS011;32042;50.916;2.926;2023-06-14T06:39:13;8.00;;;7.20;;
46318;SDS011;32042;50.916;2.926;2023-06-14T06:41:40;11.13;;;8.38;;
46318;SDS011;32042;50.916;2.926;2023-06-14T06:44:06;11.48;;;7.93;;
46318;SDS011;32042;50.916;2.926;2023-06-14T06:46:32;8.57;;;7.78;;
46318;SDS011;32042;50.916;2.926;2023-06-14T06:48:59;11.07;;;8.27;;
46318;SDS011;32042;50.916;2.926;2023-06-14T06:51:25;10.32;;;7.68;;
46318;SDS011;32042;50.916;2.926;2023-06-14T06:53:53;11.40;;;7.68;;
46318;SDS011;32042;50.916;2.926;2023-06-14T06:56:20;10.18;;;7.07;;
46318;SDS011;32042;50.916;2.926;2023-06-14T06:58:48;8.00;;;7.32;;
46318;SDS011;32042;50.916;2.926;2023-06-14T07:01:14;12.13;;;7.90;;
46318;SDS011;32042;50.916;2.926;2023-06-14T07:03:40;14.82;;;8.02;;
46318;SDS011;32042;50.916;2.926;2023-06-14T07:06:06;9.18;;;7.78;;
46318;SDS011;32042;50.916;2.926;2023-06-14T07:08:32;10.95;;;8.10;;
46318;SDS011;32042;50.916;2.926;2023-06-14T07:10:57;10.52;;;6.78;;
46318;SDS011;32042;50.916;2.926;2023-06-14T07:13:23;8.43;;;7.30;;
46318;SDS011;32042;50.916;2.926;2023-06-14T07:15:49;8.70;;;7.00;;
46318;SDS011;32042;50.916;2.926;2023-06-14T07:18:15;8.50;;;7.07;;
46318;SDS011;32042;50.916;2.926;2023-06-14T07:20:41;7.03;;;6.32;;
46318;SDS011;32042;50.916;2.926;2023-06-14T07:23:08;9.48;;;6.00;;
46318;SDS011;32042;50.916;2.926;2023-06-14T07:25:33;10.10;;;6.65;;
46318;SDS011;32042;50.916;2.926;2023-06-14T07:27:59;10.15;;;6.78;;
46318;SDS011;32042;50.916;2.926;2023-06-14T07:30:25;8.80;;;5.93;;
46318;SDS011;32042;50.916;2.926;2023-06-14T07:32:52;7.50;;;6.65;;
46318;SDS011;32042;50.916;2.926;2023-06-14T07:35:19;7.70;;;6.25;;
46318;SDS011;32042;50.916;2.926;2023-06-14T07:37:45;10.70;;;7.25;;
46318;SDS011;32042;50.916;2.926;2023-06-14T07:40:12;9.45;;;6.22;;
46318;SDS011;32042;50.916;2.926;2023-06-14T07:42:38;8.60;;;6.00;;
46318;SDS011;32042;50.916;2.926;2023-06-14T07:45:04;7.45;;;5.47;;
46318;SDS011;32042;50.916;2.926;2023-06-14T07:47:30;9.68;;;5.78;;
46318;SDS011;32042;50.916;2.926;2023-06-14T07:49:56;9.18;;;5.95;;
46318;SDS011;32042;50.916;2.926;2023-06-14T07:52:22;8.40;;;5.45;;
46318;SDS011;32042;50.916;2.926;2023-06-14T07:54:48;9.90;;;6.07;;
46318;SDS011;32042;50.916;2.926;2023-06-14T07:57:13;6.85;;;6.22;;
46318;SDS011;32042;50.916;2.926;2023-06-14T07:59:39;7.15;;;6.20;;
46318;SDS011;32042;50.916;2.926;2023-06-14T08:02:05;7.25;;;6.57;;
46318;SDS011;32042;50.916;2.926;2023-06-14T08:04:31;8.23;;;6.03;;
46318;SDS011;32042;50.916;2.926;2023-06-14T08:06:58;8.73;;;5.65;;
46318;SDS011;32042;50.916;2.926;2023-06-14T08:09:26;6.53;;;5.53;;
46318;SDS011;32042;50.916;2.926;2023-06-14T08:11:54;11.70;;;6.20;;
46318;SDS011;32042;50.916;2.926;2023-06-14T08:14:20;7.68;;;5.30;;
46318;SDS011;32042;50.916;2.926;2023-06-14T08:16:45;14.65;;;5.85;;
46318;SDS011;32042;50.916;2.926;2023-06-14T08:19:11;7.95;;;5.28;;
46318;SDS011;32042;50.916;2.926;2023-06-14T08:21:37;7.32;;;5.80;;
46318;SDS011;32042;50.916;2.926;2023-06-14T08:24:03;6.80;;;4.60;;
46318;SDS011;32042;50.916;2.926;2023-06-14T08:26:29;6.55;;;5.95;;
46318;SDS011;32042;50.916;2.926;2023-06-14T08:28:55;6.32;;;5.30;;
46318;SDS011;32042;50.916;2.926;2023-06-14T08:31:21;6.15;;;5.55;;
46318;SDS011;32042;50.916;2.926;2023-06-14T08:33:47;8.48;;;5.40;;
46318;SDS011;32042;50.916;2.926;2023-06-14T08:36:13;8.45;;;4.60;;
46318;SDS011;32042;50.916;2.926;2023-06-14T08:38:39;9.43;;;5.30;;
46318;SDS011;32042;50.916;2.926;2023-06-14T08:41:05;12.25;;;6.00;;
46318;SDS011;32042;50.916;2.926;2023-06-14T08:43:31;7.05;;;5.28;;
46318;SDS011;32042;50.916;2.926;2023-06-14T08:45:58;9.18;;;5.47;;
46318;SDS011;32042;50.916;2.926;2023-06-14T08:48:28;6.78;;;6.03;;
46318;SDS011;32042;50.916;2.926;2023-06-14T08:50:55;6.68;;;5.43;;
46318;SDS011;32042;50.916;2.926;2023-06-14T08:53:27;6.13;;;5.07;;
46318;SDS011;32042;50.916;2.926;2023-06-14T08:55:56;9.48;;;5.85;;
46318;SDS011;32042;50.916;2.926;2023-06-14T08:58:26;9.75;;;5.78;;
46318;SDS011;32042;50.916;2.926;2023-06-14T09:00:54;8.48;;;6.28;;
46318;SDS011;32042;50.916;2.926;2023-06-14T09:03:21;7.15;;;6.40;;
46318;SDS011;32042;50.916;2.926;2023-06-14T09:05:48;10.90;;;5.70;;
46318;SDS011;32042;50.916;2.926;2023-06-14T09:08:15;8.20;;;5.65;;
46318;SDS011;32042;50.916;2.926;2023-06-14T09:10:41;15.60;;;6.28;;
46318;SDS011;32042;50.916;2.926;2023-06-14T09:13:07;9.38;;;5.03;;
46318;SDS011;32042;50.916;2.926;2023-06-14T09:15:33;6.57;;;4.53;;
46318;SDS011;32042;50.916;2.926;2023-06-14T09:18:03;6.97;;;4.80;;
46318;SDS011;32042;50.916;2.926;2023-06-14T09:20:29;10.27;;;4.90;;
46318;SDS011;32042;50.916;2.926;2023-06-14T09:22:55;5.65;;;5.00;;
46318;SDS011;32042;50.916;2.926;2023-06-14T09:25:21;7.70;;;5.45;;
46318;SDS011;32042;50.916;2.926;2023-06-14T09:27:47;14.75;;;4.70;;
46318;SDS011;32042;50.916;2.926;2023-06-14T09:30:13;11.15;;;4.95;;
46318;SDS011;32042;50.916;2.926;2023-06-14T09:32:39;9.63;;;5.15;;
46318;SDS011;32042;50.916;2.926;2023-06-14T09:35:06;9.40;;;4.70;;
46318;SDS011;32042;50.916;2.926;2023-06-14T09:37:32;5.85;;;4.45;;
46318;SDS011;32042;50.916;2.926;2023-06-14T09:39:59;6.88;;;4.90;;
46318;SDS011;32042;50.916;2.926;2023-06-14T09:42:25;10.48;;;4.80;;
46318;SDS011;32042;50.916;2.926;2023-06-14T09:44:53;7.03;;;5.25;;
46318;SDS011;32042;50.916;2.926;2023-06-14T09:47:20;5.15;;;4.65;;
46318;SDS011;32042;50.916;2.926;2023-06-14T09:49:47;5.68;;;4.93;;
46318;SDS011;32042;50.916;2.926;2023-06-14T09:52:17;6.28;;;5.18;;
46318;SDS011;32042;50.916;2.926;2023-06-14T09:54:44;6.00;;;4.95;;
46318;SDS011;32042;50.916;2.926;2023-06-14T09:57:20;5.18;;;4.50;;
46318;SDS011;32042;50.916;2.926;2023-06-14T09:59:47;6.75;;;4.80;;
46318;SDS011;32042;50.916;2.926;2023-06-14T10:02:28;7.22;;;4.85;;
46318;SDS011;32042;50.916;2.926;2023-06-14T10:05:05;6.68;;;4.90;;
46318;SDS011;32042;50.916;2.926;2023-06-14T10:07:35;5.15;;;4.75;;
46318;SDS011;32042;50.916;2.926;2023-06-14T10:10:05;7.63;;;4.68;;
46318;SDS011;32042;50.916;2.926;2023-06-14T10:12:32;5.57;;;5.07;;
46318;SDS011;32042;50.916;2.926;2023-06-14T10:14:58;6.25;;;5.25;;
46318;SDS011;32042;50.916;2.926;2023-06-14T10:17:39;5.15;;;4.65;;
46318;SDS011;32042;50.916;2.926;2023-06-14T10:20:19;7.15;;;5.05;;
46318;SDS011;32042;50.916;2.926;2023-06-14T10:22:56;5.65;;;5.13;;
46318;SDS011;32042;50.916;2.926;2023-06-14T10:25:36;7.55;;;4.65;;
46318;SDS011;32042;50.916;2.926;2023-06-14T10:28:23;7.43;;;5.43;;
46318;SDS011;32042;50.916;2.926;2023-06-14T10:31:08;5.63;;;4.97;;
46318;SDS011;32042;50.916;2.926;2023-06-14T10:33:56;6.45;;;4.85;;
46318;SDS011;32042;50.916;2.926;2023-06-14T10:38:57;6.75;;;5.00;;
46318;SDS011;32042;50.916;2.926;2023-06-14T10:41:22;6.68;;;4.88;;
46318;SDS011;32042;50.916;2.926;2023-06-14T10:43:50;8.70;;;5.03;;
46318;SDS011;32042;50.916;2.926;2023-06-14T10:46:17;5.93;;;4.75;;
46318;SDS011;32042;50.916;2.926;2023-06-14T10:48:46;5.88;;;5.07;;
46318;SDS011;32042;50.916;2.926;2023-06-14T10:51:19;5.45;;;4.25;;
46318;SDS011;32042;50.916;2.926;2023-06-14T10:53:51;5.30;;;4.80;;
46318;SDS011;32042;50.916;2.926;2023-06-14T10:56:26;7.68;;;5.30;;
46318;SDS011;32042;50.916;2.926;2023-06-14T10:58:57;4.38;;;4.00;;
46318;SDS011;32042;50.916;2.926;2023-06-14T11:01:43;7.47;;;4.82;;
46318;SDS011;32042;50.916;2.926;2023-06-14T11:04:11;5.45;;;4.85;;
46318;SDS011;32042;50.916;2.926;2023-06-14T11:09:51;6.85;;;5.07;;
46318;SDS011;32042;50.916;2.926;2023-06-14T11:12:13;6.03;;;5.03;;
46318;SDS011;32042;50.916;2.926;2023-06-14T11:14:40;5.30;;;4.80;;
46318;SDS011;32042;50.916;2.926;2023-06-14T11:17:06;5.78;;;4.50;;
46318;SDS011;32042;50.916;2.926;2023-06-14T11:19:32;5.93;;;5.07;;
46318;SDS011;32042;50.916;2.926;2023-06-14T11:21:57;9.45;;;4.80;;
46318;SDS011;32042;50.916;2.926;2023-06-14T11:24:24;5.32;;;4.82;;
46318;SDS011;32042;50.916;2.926;2023-06-14T11:26:51;5.90;;;4.63;;
46318;SDS011;32042;50.916;2.926;2023-06-14T11:29:19;7.13;;;5.07;;
46318;SDS011;32042;50.916;2.926;2023-06-14T11:31:45;6.15;;;4.93;;
46318;SDS011;32042;50.916;2.926;2023-06-14T11:34:11;7.07;;;4.78;;
46318;SDS011;32042;50.916;2.926;2023-06-14T11:36:38;7.15;;;5.38;;
46318;SDS011;32042;50.916;2.926;2023-06-14T11:39:07;8.93;;;5.20;;
46318;SDS011;32042;50.916;2.926;2023-06-14T11:41:36;5.88;;;4.78;;
46318;SDS011;32042;50.916;2.926;2023-06-14T11:44:09;10.30;;;5.25;;
46318;SDS011;32042;50.916;2.926;2023-06-14T11:46:36;8.52;;;4.82;;
46318;SDS011;32042;50.916;2.926;2023-06-14T11:49:03;9.43;;;4.75;;
46318;SDS011;32042;50.916;2.926;2023-06-14T11:51:32;6.28;;;4.80;;
46318;SDS011;32042;50.916;2.926;2023-06-14T11:54:00;4.68;;;4.28;;
46318;SDS011;32042;50.916;2.926;2023-06-14T11:56:30;6.40;;;4.57;;
46318;SDS011;32042;50.916;2.926;2023-06-14T11:58:57;8.27;;;4.22;;
46318;SDS011;32042;50.916;2.926;2023-06-14T12:01:23;9.35;;;5.10;;
46318;SDS011;32042;50.916;2.926;2023-06-14T12:03:52;5.05;;;4.65;;
46318;SDS011;32042;50.916;2.926;2023-06-14T12:06:29;6.78;;;4.72;;
46318;SDS011;32042;50.916;2.926;2023-06-14T12:09:04;8.35;;;5.00;;
46318;SDS011;32042;50.916;2.926;2023-06-14T12:11:38;15.02;;;5.80;;
46318;SDS011;32042;50.916;2.926;2023-06-14T12:14:04;7.15;;;4.75;;
46318;SDS011;32042;50.916;2.926;2023-06-14T12:16:35;4.45;;;4.05;;
46318;SDS011;32042;50.916;2.926;2023-06-14T12:19:35;5.22;;;4.50;;
46318;SDS011;32042;50.916;2.926;2023-06-14T12:21:56;6.78;;;4.43;;
46318;SDS011;32042;50.916;2.926;2023-06-14T12:24:28;5.78;;;4.72;;
46318;SDS011;32042;50.916;2.926;2023-06-14T12:26:57;4.65;;;4.15;;
46318;SDS011;32042;50.916;2.926;2023-06-14T12:29:24;5.07;;;4.63;;
46318;SDS011;32042;50.916;2.926;2023-06-14T12:31:50;4.35;;;3.97;;
46318;SDS011;32042;50.916;2.926;2023-06-14T12:34:19;4.63;;;4.32;;
46318;SDS011;32042;50.916;2.926;2023-06-14T12:36:45;8.63;;;4.50;;
46318;SDS011;32042;50.916;2.926;2023-06-14T12:39:11;4.88;;;4.45;;
46318;SDS011;32042;50.916;2.926;2023-06-14T12:41:37;5.35;;;4.88;;
46318;SDS011;32042;50.916;2.926;2023-06-14T12:44:03;4.80;;;4.40;;
46318;SDS011;32042;50.916;2.926;2023-06-14T12:46:32;9.00;;;4.00;;
46318;SDS011;32042;50.916;2.926;2023-06-14T12:48:58;4.70;;;4.30;;
46318;SDS011;32042;50.916;2.926;2023-06-14T12:51:24;6.68;;;4.40;;
46318;SDS011;32042;50.916;2.926;2023-06-14T12:53:50;6.93;;;5.38;;
46318;SDS011;32042;50.916;2.926;2023-06-14T12:56:16;4.70;;;4.20;;
46318;SDS011;32042;50.916;2.926;2023-06-14T12:58:42;5.32;;;4.82;;
46318;SDS011;32042;50.916;2.926;2023-06-14T13:01:08;4.68;;;4.28;;
46318;SDS011;32042;50.916;2.926;2023-06-14T13:03:34;4.97;;;4.53;;
46318;SDS011;32042;50.916;2.926;2023-06-14T13:06:00;5.00;;;4.25;;
46318;SDS011;32042;50.916;2.926;2023-06-14T13:08:27;5.88;;;4.13;;
46318;SDS011;32042;50.916;2.926;2023-06-14T13:10:53;9.05;;;4.32;;
46318;SDS011;32042;50.916;2.926;2023-06-14T13:13:19;4.93;;;4.35;;
46318;SDS011;32042;50.916;2.926;2023-06-14T13:15:45;6.22;;;4.57;;
46318;SDS011;32042;50.916;2.926;2023-06-14T13:18:11;5.00;;;4.40;;
46318;SDS011;32042;50.916;2.926;2023-06-14T13:20:40;9.15;;;4.38;;
46318;SDS011;32042;50.916;2.926;2023-06-14T13:23:06;5.70;;;4.20;;
46318;SDS011;32042;50.916;2.926;2023-06-14T13:25:33;4.68;;;3.95;;
46318;SDS011;32042;50.916;2.926;2023-06-14T13:27:59;8.65;;;4.28;;
46318;SDS011;32042;50.916;2.926;2023-06-14T13:30:25;8.60;;;4.18;;
46318;SDS011;32042;50.916;2.926;2023-06-14T13:32:51;5.05;;;4.65;;
46318;SDS011;32042;50.916;2.926;2023-06-14T13:35:17;8.38;;;4.45;;
46318;SDS011;32042;50.916;2.926;2023-06-14T13:37:43;7.45;;;4.65;;
46318;SDS011;32042;50.916;2.926;2023-06-14T13:40:10;9.38;;;4.22;;
46318;SDS011;32042;50.916;2.926;2023-06-14T13:42:36;5.15;;;4.03;;
46318;SDS011;32042;50.916;2.926;2023-06-14T13:45:02;6.20;;;4.38;;
46318;SDS011;32042;50.916;2.926;2023-06-14T13:47:29;5.25;;;4.15;;
46318;SDS011;32042;50.916;2.926;2023-06-14T13:49:56;9.82;;;4.32;;
46318;SDS011;32042;50.916;2.926;2023-06-14T13:52:21;11.15;;;4.43;;
46318;SDS011;32042;50.916;2.926;2023-06-14T13:54:47;5.32;;;4.43;;
46318;SDS011;32042;50.916;2.926;2023-06-14T13:57:13;9.77;;;4.13;;
46318;SDS011;32042;50.916;2.926;2023-06-14T13:59:40;11.05;;;5.10;;
46318;SDS011;32042;50.916;2.926;2023-06-14T14:02:06;8.90;;;4.20;;
46318;SDS011;32042;50.916;2.926;2023-06-14T14:04:33;7.07;;;3.90;;
46318;SDS011;32042;50.916;2.926;2023-06-14T14:07:00;4.38;;;3.97;;
46318;SDS011;32042;50.916;2.926;2023-06-14T14:09:26;9.50;;;4.38;;
46318;SDS011;32042;50.916;2.926;2023-06-14T14:11:52;4.13;;;3.72;;
46318;SDS011;32042;50.916;2.926;2023-06-14T14:14:17;6.47;;;3.92;;
46318;SDS011;32042;50.916;2.926;2023-06-14T14:16:43;4.90;;;4.28;;
46318;SDS011;32042;50.916;2.926;2023-06-14T14:19:09;7.97;;;3.65;;
46318;SDS011;32042;50.916;2.926;2023-06-14T14:21:38;7.50;;;3.80;;
46318;SDS011;32042;50.916;2.926;2023-06-14T14:24:03;6.55;;;4.50;;
46318;SDS011;32042;50.916;2.926;2023-06-14T14:26:30;4.25;;;3.85;;
46318;SDS011;32042;50.916;2.926;2023-06-14T14:28:55;8.15;;;4.20;;
46318;SDS011;32042;50.916;2.926;2023-06-14T14:31:21;7.25;;;4.28;;
46318;SDS011;32042;50.916;2.926;2023-06-14T14:33:47;7.22;;;3.85;;
46318;SDS011;32042;50.916;2.926;2023-06-14T14:36:12;5.85;;;4.10;;
46318;SDS011;32042;50.916;2.926;2023-06-14T14:38:38;8.00;;;3.95;;
46318;SDS011;32042;50.916;2.926;2023-06-14T14:41:04;7.03;;;4.43;;
46318;SDS011;32042;50.916;2.926;2023-06-14T14:43:30;4.30;;;4.00;;
46318;SDS011;32042;50.916;2.926;2023-06-14T14:45:57;6.10;;;3.80;;
46318;SDS011;32042;50.916;2.926;2023-06-14T14:48:22;8.65;;;4.38;;
46318;SDS011;32042;50.916;2.926;2023-06-14T14:50:48;4.70;;;4.30;;
46318;SDS011;32042;50.916;2.926;2023-06-14T14:53:14;5.88;;;4.20;;